sensor_id;sensor_type;location;lat;lon;timestamp;temperature;humidity
24250;DHT22;12379;49.820;8.648;2022-09-21T00:01:13;9.00;99.90
24250;DHT22;12379;49.820;8.648;2022-09-21T00:03:40;9.00;99.90
24250;DHT22;12379;49.820;8.648;2022-09-21T00:06:09;9.00;99.90
24250;DHT22;12379;49.820;8.648;2022-09-21T00:08:35;9.00;99.90
24250;DHT22;12379;49.820;8.648;2022-09-21T00:11:01;9.00;99.90
24250;DHT22;12379;49.820;8.648;2022-09-21T00:13:27;8.90;99.90
24250;DHT22;12379;49.820;8.648;2022-09-21T00:15:54;8.90;99.90
24250;DHT22;12379;49.820;8.648;2022-09-21T00:18:21;9.00;99.90
24250;DHT22;12379;49.820;8.648;2022-09-21T00:20:46;9.00;99.90
24250;DHT22;12379;49.820;8.648;2022-09-21T00:23:12;8.90;99.90
24250;DHT22;12379;49.820;8.648;2022-09-21T00:25:38;8.80;99.90
24250;DHT22;12379;49.820;8.648;2022-09-21T00:28:03;8.80;99.90
24250;DHT22;12379;49.820;8.648;2022-09-21T00:30:29;8.80;99.90
24250;DHT22;12379;49.820;8.648;2022-09-21T00:32:54;8.70;99.90
24250;DHT22;12379;49.820;8.648;2022-09-21T00:35:20;8.70;99.90
24250;DHT22;12379;49.820;8.648;2022-09-21T00:37:46;8.80;99.90
24250;DHT22;12379;49.820;8.648;2022-09-21T00:40:11;8.70;99.90
24250;DHT22;12379;49.820;8.648;2022-09-21T00:42:37;8.70;99.90
24250;DHT22;12379;49.820;8.648;2022-09-21T00:45:03;8.70;99.90
24250;DHT22;12379;49.820;8.648;2022-09-21T00:47:39;8.70;99.90
24250;DHT22;12379;49.820;8.648;2022-09-21T00:50:08;8.70;99.90
24250;DHT22;12379;49.820;8.648;2022-09-21T00:52:42;8.80;99.90
24250;DHT22;12379;49.820;8.648;2022-09-21T00:55:17;8.80;99.90
24250;DHT22;12379;49.820;8.648;2022-09-21T00:57:47;8.80;99.90
24250;DHT22;12379;49.820;8.648;2022-09-21T01:00:15;8.80;99.90
24250;DHT22;12379;49.820;8.648;2022-09-21T01:02:41;8.70;99.90
24250;DHT22;12379;49.820;8.648;2022-09-21T01:05:10;8.60;99.90
24250;DHT22;12379;49.820;8.648;2022-09-21T01:07:40;8.60;99.90
24250;DHT22;12379;49.820;8.648;2022-09-21T01:10:10;8.50;99.90
24250;DHT22;12379;49.820;8.648;2022-09-21T01:13:06;8.50;99.90
24250;DHT22;12379;49.820;8.648;2022-09-21T01:15:50;8.50;99.90
24250;DHT22;12379;49.820;8.648;2022-09-21T01:18:51;8.50;99.90
24250;DHT22;12379;49.820;8.648;2022-09-21T01:21:23;8.40;99.90
24250;DHT22;12379;49.820;8.648;2022-09-21T01:27:12;8.30;99.90
24250;DHT22;12379;49.820;8.648;2022-09-21T01:29:53;8.40;99.90
24250;DHT22;12379;49.820;8.648;2022-09-21T01:32:28;8.40;99.90
24250;DHT22;12379;49.820;8.648;2022-09-21T01:35:09;8.40;99.90
24250;DHT22;12379;49.820;8.648;2022-09-21T01:37:37;8.50;99.90
24250;DHT22;12379;49.820;8.648;2022-09-21T01:40:10;8.50;99.90
24250;DHT22;12379;49.820;8.648;2022-09-21T01:42:38;8.50;99.90
24250;DHT22;12379;49.820;8.648;2022-09-21T01:45:06;8.50;99.90
24250;DHT22;12379;49.820;8.648;2022-09-21T01:47:35;8.50;99.90
24250;DHT22;12379;49.820;8.648;2022-09-21T01:50:05;8.50;99.90
24250;DHT22;12379;49.820;8.648;2022-09-21T01:52:55;8.50;99.90
24250;DHT22;12379;49.820;8.648;2022-09-21T01:55:28;8.50;99.90
24250;DHT22;12379;49.820;8.648;2022-09-21T01:57:59;8.50;99.90
24250;DHT22;12379;49.820;8.648;2022-09-21T02:00:28;8.50;99.90
24250;DHT22;12379;49.820;8.648;2022-09-21T02:03:01;8.50;99.90
24250;DHT22;12379;49.820;8.648;2022-09-21T02:05:29;8.40;99.90
24250;DHT22;12379;49.820;8.648;2022-09-21T02:07:56;8.30;99.90
24250;DHT22;12379;49.820;8.648;2022-09-21T02:10:33;8.20;99.90
24250;DHT22;12379;49.820;8.648;2022-09-21T02:13:02;8.20;99.90
24250;DHT22;12379;49.820;8.648;2022-09-21T02:15:48;8.10;99.90
24250;DHT22;12379;49.820;8.648;2022-09-21T02:21:07;8.10;99.90
24250;DHT22;12379;49.820;8.648;2022-09-21T02:23:44;8.20;99.90
24250;DHT22;12379;49.820;8.648;2022-09-21T02:26:14;8.30;99.90
24250;DHT22;12379;49.820;8.648;2022-09-21T02:28:50;8.30;99.90
24250;DHT22;12379;49.820;8.648;2022-09-21T02:34:47;8.30;99.90
24250;DHT22;12379;49.820;8.648;2022-09-21T02:37:19;8.30;99.90
24250;DHT22;12379;49.820;8.648;2022-09-21T02:40:19;8.30;99.90
24250;DHT22;12379;49.820;8.648;2022-09-21T02:42:50;8.30;99.90
24250;DHT22;12379;49.820;8.648;2022-09-21T02:45:21;8.30;99.90
24250;DHT22;12379;49.820;8.648;2022-09-21T02:48:02;8.30;99.90
24250;DHT22;12379;49.820;8.648;2022-09-21T02:50:35;8.30;99.90
24250;DHT22;12379;49.820;8.648;2022-09-21T02:53:04;8.30;99.90
24250;DHT22;12379;49.820;8.648;2022-09-21T02:55:32;8.30;99.90
24250;DHT22;12379;49.820;8.648;2022-09-21T02:57:58;8.20;99.90
24250;DHT22;12379;49.820;8.648;2022-09-21T03:00:26;8.20;99.90
24250;DHT22;12379;49.820;8.648;2022-09-21T03:02:51;8.10;99.90
24250;DHT22;12379;49.820;8.648;2022-09-21T03:05:17;8.10;99.90
24250;DHT22;12379;49.820;8.648;2022-09-21T03:07:42;8.10;99.90
24250;DHT22;12379;49.820;8.648;2022-09-21T03:10:08;8.00;99.90
24250;DHT22;12379;49.820;8.648;2022-09-21T03:12:34;8.00;99.90
24250;DHT22;12379;49.820;8.648;2022-09-21T03:15:00;7.90;99.90
24250;DHT22;12379;49.820;8.648;2022-09-21T03:17:26;7.90;99.90
24250;DHT22;12379;49.820;8.648;2022-09-21T03:19:52;7.80;99.90
24250;DHT22;12379;49.820;8.648;2022-09-21T03:22:22;7.80;99.90
24250;DHT22;12379;49.820;8.648;2022-09-21T03:24:48;7.70;99.90
24250;DHT22;12379;49.820;8.648;2022-09-21T03:27:16;7.60;99.90
24250;DHT22;12379;49.820;8.648;2022-09-21T03:29:42;7.50;99.90
24250;DHT22;12379;49.820;8.648;2022-09-21T03:32:08;7.50;99.90
24250;DHT22;12379;49.820;8.648;2022-09-21T03:34:34;7.40;99.90
24250;DHT22;12379;49.820;8.648;2022-09-21T03:37:02;7.40;99.90
24250;DHT22;12379;49.820;8.648;2022-09-21T03:39:29;7.40;99.90
24250;DHT22;12379;49.820;8.648;2022-09-21T03:41:54;7.30;99.90
24250;DHT22;12379;49.820;8.648;2022-09-21T03:44:22;7.30;99.90
24250;DHT22;12379;49.820;8.648;2022-09-21T03:46:48;7.40;99.90
24250;DHT22;12379;49.820;8.648;2022-09-21T03:49:15;7.40;99.90
24250;DHT22;12379;49.820;8.648;2022-09-21T03:51:41;7.40;99.90
24250;DHT22;12379;49.820;8.648;2022-09-21T03:54:06;7.40;99.90
24250;DHT22;12379;49.820;8.648;2022-09-21T03:56:32;7.40;99.90
24250;DHT22;12379;49.820;8.648;2022-09-21T03:58:57;7.50;99.90
24250;DHT22;12379;49.820;8.648;2022-09-21T04:01:23;7.50;99.90
24250;DHT22;12379;49.820;8.648;2022-09-21T04:03:49;7.50;99.90
24250;DHT22;12379;49.820;8.648;2022-09-21T04:06:14;7.50;99.90
24250;DHT22;12379;49.820;8.648;2022-09-21T04:08:40;7.50;99.90
24250;DHT22;12379;49.820;8.648;2022-09-21T04:11:10;7.50;99.90
24250;DHT22;12379;49.820;8.648;2022-09-21T04:13:36;7.40;99.90
24250;DHT22;12379;49.820;8.648;2022-09-21T04:16:01;7.50;99.90
24250;DHT22;12379;49.820;8.648;2022-09-21T04:18:27;7.50;99.90
24250;DHT22;12379;49.820;8.648;2022-09-21T04:20:52;7.40;99.90
24250;DHT22;12379;49.820;8.648;2022-09-21T04:23:18;7.40;99.90
24250;DHT22;12379;49.820;8.648;2022-09-21T04:25:46;7.40;99.90
24250;DHT22;12379;49.820;8.648;2022-09-21T04:28:13;7.50;99.90
24250;DHT22;12379;49.820;8.648;2022-09-21T04:30:38;7.40;99.90
24250;DHT22;12379;49.820;8.648;2022-09-21T04:33:04;7.40;99.90
24250;DHT22;12379;49.820;8.648;2022-09-21T04:35:30;7.40;99.90
24250;DHT22;12379;49.820;8.648;2022-09-21T04:37:56;7.40;99.90
24250;DHT22;12379;49.820;8.648;2022-09-21T04:40:21;7.40;99.90
24250;DHT22;12379;49.820;8.648;2022-09-21T04:42:54;7.40;99.90
24250;DHT22;12379;49.820;8.648;2022-09-21T04:45:21;7.40;99.90
24250;DHT22;12379;49.820;8.648;2022-09-21T04:47:47;7.40;99.90
24250;DHT22;12379;49.820;8.648;2022-09-21T04:50:13;7.40;99.90
24250;DHT22;12379;49.820;8.648;2022-09-21T04:52:39;7.40;99.90
24250;DHT22;12379;49.820;8.648;2022-09-21T04:55:05;7.40;99.90
24250;DHT22;12379;49.820;8.648;2022-09-21T04:57:31;7.50;99.90
24250;DHT22;12379;49.820;8.648;2022-09-21T04:59:57;7.50;99.90
24250;DHT22;12379;49.820;8.648;2022-09-21T05:02:25;7.50;99.90
24250;DHT22;12379;49.820;8.648;2022-09-21T05:04:51;7.50;99.90
24250;DHT22;12379;49.820;8.648;2022-09-21T05:07:16;7.40;99.90
24250;DHT22;12379;49.820;8.648;2022-09-21T05:09:42;7.30;99.90
24250;DHT22;12379;49.820;8.648;2022-09-21T05:12:26;7.30;99.90
24250;DHT22;12379;49.820;8.648;2022-09-21T05:14:51;7.30;99.90
24250;DHT22;12379;49.820;8.648;2022-09-21T05:17:17;7.30;99.90
24250;DHT22;12379;49.820;8.648;2022-09-21T05:19:46;7.20;99.90
24250;DHT22;12379;49.820;8.648;2022-09-21T05:22:12;7.20;99.90
24250;DHT22;12379;49.820;8.648;2022-09-21T05:24:37;7.20;99.90
24250;DHT22;12379;49.820;8.648;2022-09-21T05:27:03;7.20;99.90
24250;DHT22;12379;49.820;8.648;2022-09-21T05:29:29;7.20;99.90
24250;DHT22;12379;49.820;8.648;2022-09-21T05:32:08;7.30;99.90
24250;DHT22;12379;49.820;8.648;2022-09-21T05:34:43;7.30;99.90
24250;DHT22;12379;49.820;8.648;2022-09-21T05:37:25;7.30;99.90
24250;DHT22;12379;49.820;8.648;2022-09-21T05:39:54;7.40;99.90
24250;DHT22;12379;49.820;8.648;2022-09-21T05:42:20;7.50;99.90
24250;DHT22;12379;49.820;8.648;2022-09-21T05:44:46;7.60;99.90
24250;DHT22;12379;49.820;8.648;2022-09-21T05:47:21;7.60;99.90
24250;DHT22;12379;49.820;8.648;2022-09-21T05:49:55;7.70;99.90
24250;DHT22;12379;49.820;8.648;2022-09-21T05:52:33;7.80;99.90
24250;DHT22;12379;49.820;8.648;2022-09-21T05:57:55;7.90;99.90
24250;DHT22;12379;49.820;8.648;2022-09-21T06:00:24;8.10;99.90
24250;DHT22;12379;49.820;8.648;2022-09-21T06:03:06;8.10;99.90
24250;DHT22;12379;49.820;8.648;2022-09-21T06:05:35;8.20;99.90
24250;DHT22;12379;49.820;8.648;2022-09-21T06:08:01;8.30;99.90
24250;DHT22;12379;49.820;8.648;2022-09-21T06:10:32;8.40;99.90
24250;DHT22;12379;49.820;8.648;2022-09-21T06:12:58;8.50;99.90
24250;DHT22;12379;49.820;8.648;2022-09-21T06:15:24;8.60;99.90
24250;DHT22;12379;49.820;8.648;2022-09-21T06:17:50;9.70;99.90
24250;DHT22;12379;49.820;8.648;2022-09-21T06:20:15;9.90;99.90
24250;DHT22;12379;49.820;8.648;2022-09-21T06:22:41;10.00;99.90
24250;DHT22;12379;49.820;8.648;2022-09-21T06:25:07;10.30;99.90
24250;DHT22;12379;49.820;8.648;2022-09-21T06:27:32;10.70;99.90
24250;DHT22;12379;49.820;8.648;2022-09-21T06:29:58;10.90;99.90
24250;DHT22;12379;49.820;8.648;2022-09-21T06:32:23;10.90;99.90
24250;DHT22;12379;49.820;8.648;2022-09-21T06:34:49;10.70;99.90
24250;DHT22;12379;49.820;8.648;2022-09-21T06:37:15;10.60;99.90
24250;DHT22;12379;49.820;8.648;2022-09-21T06:39:40;10.40;99.90
24250;DHT22;12379;49.820;8.648;2022-09-21T06:42:06;10.40;99.90
24250;DHT22;12379;49.820;8.648;2022-09-21T06:44:32;10.30;99.90
24250;DHT22;12379;49.820;8.648;2022-09-21T06:46:57;10.30;99.90
24250;DHT22;12379;49.820;8.648;2022-09-21T06:49:23;10.40;99.90
24250;DHT22;12379;49.820;8.648;2022-09-21T06:51:48;10.90;99.90
24250;DHT22;12379;49.820;8.648;2022-09-21T06:54:14;11.60;99.90
24250;DHT22;12379;49.820;8.648;2022-09-21T06:56:40;12.70;99.90
24250;DHT22;12379;49.820;8.648;2022-09-21T06:59:07;13.50;99.90
24250;DHT22;12379;49.820;8.648;2022-09-21T07:01:33;14.40;99.90
24250;DHT22;12379;49.820;8.648;2022-09-21T07:03:59;15.10;99.90
24250;DHT22;12379;49.820;8.648;2022-09-21T07:06:24;15.70;99.90
24250;DHT22;12379;49.820;8.648;2022-09-21T07:08:53;16.20;99.90
24250;DHT22;12379;49.820;8.648;2022-09-21T07:11:19;16.30;99.90
24250;DHT22;12379;49.820;8.648;2022-09-21T07:13:45;16.40;99.90
24250;DHT22;12379;49.820;8.648;2022-09-21T07:16:11;16.70;99.90
24250;DHT22;12379;49.820;8.648;2022-09-21T07:18:39;17.10;99.90
24250;DHT22;12379;49.820;8.648;2022-09-21T07:21:07;17.10;99.90
24250;DHT22;12379;49.820;8.648;2022-09-21T07:23:33;17.50;99.90
24250;DHT22;12379;49.820;8.648;2022-09-21T07:26:07;17.80;99.90
24250;DHT22;12379;49.820;8.648;2022-09-21T07:28:33;17.90;99.90
24250;DHT22;12379;49.820;8.648;2022-09-21T07:31:12;18.20;99.90
24250;DHT22;12379;49.820;8.648;2022-09-21T07:33:38;18.30;99.80
24250;DHT22;12379;49.820;8.648;2022-09-21T07:36:05;18.90;98.60
24250;DHT22;12379;49.820;8.648;2022-09-21T07:38:42;19.60;97.30
24250;DHT22;12379;49.820;8.648;2022-09-21T07:41:12;19.40;96.30
24250;DHT22;12379;49.820;8.648;2022-09-21T07:43:37;19.10;96.30
24250;DHT22;12379;49.820;8.648;2022-09-21T07:46:05;19.20;96.60
24250;DHT22;12379;49.820;8.648;2022-09-21T07:48:31;19.50;96.10
24250;DHT22;12379;49.820;8.648;2022-09-21T07:51:15;19.90;95.50
24250;DHT22;12379;49.820;8.648;2022-09-21T07:53:42;19.80;94.30
24250;DHT22;12379;49.820;8.648;2022-09-21T07:56:14;19.40;94.60
24250;DHT22;12379;49.820;8.648;2022-09-21T07:58:40;19.20;95.10
24250;DHT22;12379;49.820;8.648;2022-09-21T08:01:25;19.10;94.90
24250;DHT22;12379;49.820;8.648;2022-09-21T08:03:53;18.90;95.60
24250;DHT22;12379;49.820;8.648;2022-09-21T08:06:19;19.30;94.70
24250;DHT22;12379;49.820;8.648;2022-09-21T08:08:45;19.50;94.00
24250;DHT22;12379;49.820;8.648;2022-09-21T08:11:13;20.00;94.30
24250;DHT22;12379;49.820;8.648;2022-09-21T08:13:39;20.20;92.30
24250;DHT22;12379;49.820;8.648;2022-09-21T08:16:05;20.20;92.70
24250;DHT22;12379;49.820;8.648;2022-09-21T08:18:30;20.30;92.20
24250;DHT22;12379;49.820;8.648;2022-09-21T08:20:57;20.30;91.90
24250;DHT22;12379;49.820;8.648;2022-09-21T08:23:24;20.20;92.30
24250;DHT22;12379;49.820;8.648;2022-09-21T08:25:50;19.80;91.40
24250;DHT22;12379;49.820;8.648;2022-09-21T08:28:16;19.40;92.30
24250;DHT22;12379;49.820;8.648;2022-09-21T08:30:43;19.30;93.10
24250;DHT22;12379;49.820;8.648;2022-09-21T08:33:09;19.30;92.70
24250;DHT22;12379;49.820;8.648;2022-09-21T08:35:35;19.20;92.70
24250;DHT22;12379;49.820;8.648;2022-09-21T08:38:01;19.30;92.30
24250;DHT22;12379;49.820;8.648;2022-09-21T08:40:27;19.50;93.00
24250;DHT22;12379;49.820;8.648;2022-09-21T08:43:12;19.90;92.30
24250;DHT22;12379;49.820;8.648;2022-09-21T08:45:42;20.10;91.80
24250;DHT22;12379;49.820;8.648;2022-09-21T08:48:19;19.80;91.80
24250;DHT22;12379;49.820;8.648;2022-09-21T08:51:00;19.50;92.00
24250;DHT22;12379;49.820;8.648;2022-09-21T08:53:54;19.50;92.30
24250;DHT22;12379;49.820;8.648;2022-09-21T08:56:22;19.50;92.20
24250;DHT22;12379;49.820;8.648;2022-09-21T08:58:48;19.60;92.00
24250;DHT22;12379;49.820;8.648;2022-09-21T09:01:33;19.90;91.60
24250;DHT22;12379;49.820;8.648;2022-09-21T09:12:56;19.50;92.10
24250;DHT22;12379;49.820;8.648;2022-09-21T09:21:08;19.10;92.40
24250;DHT22;12379;49.820;8.648;2022-09-21T09:23:53;19.00;92.30
24250;DHT22;12379;49.820;8.648;2022-09-21T09:26:41;19.00;92.70
24250;DHT22;12379;49.820;8.648;2022-09-21T09:29:21;19.20;93.10
24250;DHT22;12379;49.820;8.648;2022-09-21T09:31:50;19.40;92.30
24250;DHT22;12379;49.820;8.648;2022-09-21T09:34:28;19.30;92.10
24250;DHT22;12379;49.820;8.648;2022-09-21T09:36:58;19.20;92.50
24250;DHT22;12379;49.820;8.648;2022-09-21T09:39:25;18.90;91.80
24250;DHT22;12379;49.820;8.648;2022-09-21T09:50:10;19.20;91.80
24250;DHT22;12379;49.820;8.648;2022-09-21T09:52:38;19.20;91.70
24250;DHT22;12379;49.820;8.648;2022-09-21T09:55:19;18.90;91.10
24250;DHT22;12379;49.820;8.648;2022-09-21T09:57:47;18.60;91.30
24250;DHT22;12379;49.820;8.648;2022-09-21T10:00:15;18.60;91.50
24250;DHT22;12379;49.820;8.648;2022-09-21T10:02:53;18.70;90.80
24250;DHT22;12379;49.820;8.648;2022-09-21T10:07:50;18.70;91.60
24250;DHT22;12379;49.820;8.648;2022-09-21T10:13:29;18.50;92.40
24250;DHT22;12379;49.820;8.648;2022-09-21T10:21:38;18.50;92.00
24250;DHT22;12379;49.820;8.648;2022-09-21T10:24:17;18.30;91.20
24250;DHT22;12379;49.820;8.648;2022-09-21T10:27:12;18.10;91.40
24250;DHT22;12379;49.820;8.648;2022-09-21T10:29:48;18.10;90.10
24250;DHT22;12379;49.820;8.648;2022-09-21T10:40:02;18.00;92.50
24250;DHT22;12379;49.820;8.648;2022-09-21T10:42:34;17.90;92.80
24250;DHT22;12379;49.820;8.648;2022-09-21T10:45:12;17.90;93.10
24250;DHT22;12379;49.820;8.648;2022-09-21T10:47:50;17.80;92.50
24250;DHT22;12379;49.820;8.648;2022-09-21T10:50:23;17.60;93.00
24250;DHT22;12379;49.820;8.648;2022-09-21T10:52:53;17.40;94.30
24250;DHT22;12379;49.820;8.648;2022-09-21T10:55:22;17.30;93.70
24250;DHT22;12379;49.820;8.648;2022-09-21T10:57:50;16.90;94.80
24250;DHT22;12379;49.820;8.648;2022-09-21T11:00:26;16.90;95.50
24250;DHT22;12379;49.820;8.648;2022-09-21T11:05:48;17.00;93.00
24250;DHT22;12379;49.820;8.648;2022-09-21T11:08:21;17.00;94.50
24250;DHT22;12379;49.820;8.648;2022-09-21T11:10:52;16.80;91.80
24250;DHT22;12379;49.820;8.648;2022-09-21T11:24:13;16.80;94.30
24250;DHT22;12379;49.820;8.648;2022-09-21T11:26:55;16.70;92.10
24250;DHT22;12379;49.820;8.648;2022-09-21T11:29:38;16.70;92.90
24250;DHT22;12379;49.820;8.648;2022-09-21T11:32:13;16.80;93.90
24250;DHT22;12379;49.820;8.648;2022-09-21T11:38:10;16.80;94.50
24250;DHT22;12379;49.820;8.648;2022-09-21T12:00:08;17.30;94.20
24250;DHT22;12379;49.820;8.648;2022-09-21T12:03:17;17.30;94.50
24250;DHT22;12379;49.820;8.648;2022-09-21T12:08:58;17.60;93.50
24250;DHT22;12379;49.820;8.648;2022-09-21T12:11:36;17.60;93.10
24250;DHT22;12379;49.820;8.648;2022-09-21T12:19:45;17.70;93.00
24250;DHT22;12379;49.820;8.648;2022-09-21T12:22:24;17.70;92.70
24250;DHT22;12379;49.820;8.648;2022-09-21T12:30:56;17.80;92.60
24250;DHT22;12379;49.820;8.648;2022-09-21T12:33:38;17.90;92.20
24250;DHT22;12379;49.820;8.648;2022-09-21T12:36:15;18.10;92.30
24250;DHT22;12379;49.820;8.648;2022-09-21T12:38:57;18.10;91.70
24250;DHT22;12379;49.820;8.648;2022-09-21T12:41:33;18.10;92.10
24250;DHT22;12379;49.820;8.648;2022-09-21T12:47:02;17.90;91.40
24250;DHT22;12379;49.820;8.648;2022-09-21T12:49:43;18.00;91.70
24250;DHT22;12379;49.820;8.648;2022-09-21T12:52:15;17.90;91.00
24250;DHT22;12379;49.820;8.648;2022-09-21T13:00:21;18.30;91.70
24250;DHT22;12379;49.820;8.648;2022-09-21T13:02:53;18.30;92.00
24250;DHT22;12379;49.820;8.648;2022-09-21T13:10:36;18.40;91.00
24250;DHT22;12379;49.820;8.648;2022-09-21T13:13:07;18.50;90.80
24250;DHT22;12379;49.820;8.648;2022-09-21T13:15:49;18.70;90.40
24250;DHT22;12379;49.820;8.648;2022-09-21T13:18:24;18.90;89.80
24250;DHT22;12379;49.820;8.648;2022-09-21T13:20:51;18.80;88.00
24250;DHT22;12379;49.820;8.648;2022-09-21T13:25:58;18.80;88.40
24250;DHT22;12379;49.820;8.648;2022-09-21T13:31:58;18.90;90.00
24250;DHT22;12379;49.820;8.648;2022-09-21T13:34:43;18.60;88.20
24250;DHT22;12379;49.820;8.648;2022-09-21T13:39:45;18.70;87.30
24250;DHT22;12379;49.820;8.648;2022-09-21T13:44:58;18.70;87.60
24250;DHT22;12379;49.820;8.648;2022-09-21T13:47:32;18.80;87.70
24250;DHT22;12379;49.820;8.648;2022-09-21T13:50:00;18.70;87.70
24250;DHT22;12379;49.820;8.648;2022-09-21T13:52:50;18.70;87.60
24250;DHT22;12379;49.820;8.648;2022-09-21T13:57:49;19.00;86.90
24250;DHT22;12379;49.820;8.648;2022-09-21T14:05:43;18.80;83.30
24250;DHT22;12379;49.820;8.648;2022-09-21T14:10:50;18.90;84.40
24250;DHT22;12379;49.820;8.648;2022-09-21T14:13:38;19.00;83.80
24250;DHT22;12379;49.820;8.648;2022-09-21T14:19:04;19.10;81.80
24250;DHT22;12379;49.820;8.648;2022-09-21T14:27:32;18.90;80.20
24250;DHT22;12379;49.820;8.648;2022-09-21T14:35:29;18.90;78.50
24250;DHT22;12379;49.820;8.648;2022-09-21T14:37:58;18.80;78.10
24250;DHT22;12379;49.820;8.648;2022-09-21T14:40:33;18.80;78.50
24250;DHT22;12379;49.820;8.648;2022-09-21T14:43:08;18.70;77.90
24250;DHT22;12379;49.820;8.648;2022-09-21T14:48:58;18.70;77.80
24250;DHT22;12379;49.820;8.648;2022-09-21T14:57:43;18.50;77.30
24250;DHT22;12379;49.820;8.648;2022-09-21T15:00:20;18.60;77.10
24250;DHT22;12379;49.820;8.648;2022-09-21T15:08:55;18.70;77.80
24250;DHT22;12379;49.820;8.648;2022-09-21T15:11:54;18.60;77.20
24250;DHT22;12379;49.820;8.648;2022-09-21T15:14:36;18.60;78.70
24250;DHT22;12379;49.820;8.648;2022-09-21T15:17:24;18.60;76.70
24250;DHT22;12379;49.820;8.648;2022-09-21T15:19:50;18.60;77.20
24250;DHT22;12379;49.820;8.648;2022-09-21T15:22:19;18.50;75.00
24250;DHT22;12379;49.820;8.648;2022-09-21T15:24:56;18.30;75.70
24250;DHT22;12379;49.820;8.648;2022-09-21T15:27:26;18.30;76.70
24250;DHT22;12379;49.820;8.648;2022-09-21T15:29:58;18.10;76.90
24250;DHT22;12379;49.820;8.648;2022-09-21T15:32:40;18.00;78.40
24250;DHT22;12379;49.820;8.648;2022-09-21T15:37:49;18.00;75.20
24250;DHT22;12379;49.820;8.648;2022-09-21T15:45:33;17.90;76.10
24250;DHT22;12379;49.820;8.648;2022-09-21T15:48:02;18.00;77.00
24250;DHT22;12379;49.820;8.648;2022-09-21T15:50:31;18.00;76.80
24250;DHT22;12379;49.820;8.648;2022-09-21T15:53:14;17.90;75.90
24250;DHT22;12379;49.820;8.648;2022-09-21T15:55:45;17.90;75.60
24250;DHT22;12379;49.820;8.648;2022-09-21T15:58:30;17.80;74.90
24250;DHT22;12379;49.820;8.648;2022-09-21T16:01:00;17.70;77.20
24250;DHT22;12379;49.820;8.648;2022-09-21T16:03:27;17.60;76.50
24250;DHT22;12379;49.820;8.648;2022-09-21T16:05:55;17.60;76.50
24250;DHT22;12379;49.820;8.648;2022-09-21T16:08:34;17.50;77.40
24250;DHT22;12379;49.820;8.648;2022-09-21T16:14:12;17.50;78.70
24250;DHT22;12379;49.820;8.648;2022-09-21T16:17:23;17.50;78.00
24250;DHT22;12379;49.820;8.648;2022-09-21T16:22:45;17.40;80.10
24250;DHT22;12379;49.820;8.648;2022-09-21T16:27:56;17.30;80.80
24250;DHT22;12379;49.820;8.648;2022-09-21T16:33:36;17.10;79.20
24250;DHT22;12379;49.820;8.648;2022-09-21T16:38:59;17.00;80.70
24250;DHT22;12379;49.820;8.648;2022-09-21T16:41:41;17.00;81.60
24250;DHT22;12379;49.820;8.648;2022-09-21T16:44:12;16.90;81.70
24250;DHT22;12379;49.820;8.648;2022-09-21T16:46:58;16.80;82.40
24250;DHT22;12379;49.820;8.648;2022-09-21T16:49:26;16.70;83.30
24250;DHT22;12379;49.820;8.648;2022-09-21T16:51:53;16.60;83.20
24250;DHT22;12379;49.820;8.648;2022-09-21T16:54:20;16.60;83.60
24250;DHT22;12379;49.820;8.648;2022-09-21T16:56:49;16.50;83.90
24250;DHT22;12379;49.820;8.648;2022-09-21T16:59:16;16.50;85.00
24250;DHT22;12379;49.820;8.648;2022-09-21T17:01:44;16.40;85.60
24250;DHT22;12379;49.820;8.648;2022-09-21T17:04:12;16.30;86.10
24250;DHT22;12379;49.820;8.648;2022-09-21T17:06:38;16.20;86.10
24250;DHT22;12379;49.820;8.648;2022-09-21T17:09:25;16.10;87.80
24250;DHT22;12379;49.820;8.648;2022-09-21T17:11:52;16.00;87.70
24250;DHT22;12379;49.820;8.648;2022-09-21T17:14:19;15.90;88.50
24250;DHT22;12379;49.820;8.648;2022-09-21T17:16:48;15.80;89.20
24250;DHT22;12379;49.820;8.648;2022-09-21T17:19:15;15.70;89.80
24250;DHT22;12379;49.820;8.648;2022-09-21T17:21:41;15.70;90.10
24250;DHT22;12379;49.820;8.648;2022-09-21T17:24:06;15.60;90.40
24250;DHT22;12379;49.820;8.648;2022-09-21T17:26:32;15.50;90.90
24250;DHT22;12379;49.820;8.648;2022-09-21T17:28:59;15.40;91.70
24250;DHT22;12379;49.820;8.648;2022-09-21T17:31:25;15.30;92.10
24250;DHT22;12379;49.820;8.648;2022-09-21T17:33:52;15.20;92.70
24250;DHT22;12379;49.820;8.648;2022-09-21T17:36:19;15.20;93.40
24250;DHT22;12379;49.820;8.648;2022-09-21T17:38:44;15.10;93.60
24250;DHT22;12379;49.820;8.648;2022-09-21T17:41:33;15.00;94.20
24250;DHT22;12379;49.820;8.648;2022-09-21T17:44:14;14.90;95.20
24250;DHT22;12379;49.820;8.648;2022-09-21T17:47:18;14.70;95.70
24250;DHT22;12379;49.820;8.648;2022-09-21T17:49:36;14.60;96.60
24250;DHT22;12379;49.820;8.648;2022-09-21T17:52:02;14.40;97.00
24250;DHT22;12379;49.820;8.648;2022-09-21T17:54:47;14.30;97.70
24250;DHT22;12379;49.820;8.648;2022-09-21T18:01:02;14.10;99.00
24250;DHT22;12379;49.820;8.648;2022-09-21T18:03:31;13.90;99.80
24250;DHT22;12379;49.820;8.648;2022-09-21T18:06:00;13.90;99.90
24250;DHT22;12379;49.820;8.648;2022-09-21T18:08:31;13.80;99.90
24250;DHT22;12379;49.820;8.648;2022-09-21T18:22:52;13.00;99.90
24250;DHT22;12379;49.820;8.648;2022-09-21T18:25:31;12.90;99.90
24250;DHT22;12379;49.820;8.648;2022-09-21T18:28:08;12.90;99.90
24250;DHT22;12379;49.820;8.648;2022-09-21T18:30:38;12.80;99.90
24250;DHT22;12379;49.820;8.648;2022-09-21T18:33:26;12.80;99.90
24250;DHT22;12379;49.820;8.648;2022-09-21T18:35:59;12.70;99.90
24250;DHT22;12379;49.820;8.648;2022-09-21T18:38:47;12.70;99.90
24250;DHT22;12379;49.820;8.648;2022-09-21T18:41:40;12.60;99.90
24250;DHT22;12379;49.820;8.648;2022-09-21T18:44:21;12.60;99.90
24250;DHT22;12379;49.820;8.648;2022-09-21T18:47:05;12.50;99.90
24250;DHT22;12379;49.820;8.648;2022-09-21T18:50:14;12.40;99.90
24250;DHT22;12379;49.820;8.648;2022-09-21T18:53:03;12.30;99.90
24250;DHT22;12379;49.820;8.648;2022-09-21T18:55:30;12.20;99.90
24250;DHT22;12379;49.820;8.648;2022-09-21T18:57:58;12.20;99.90
24250;DHT22;12379;49.820;8.648;2022-09-21T19:00:25;12.20;99.90
24250;DHT22;12379;49.820;8.648;2022-09-21T19:02:57;12.10;99.90
24250;DHT22;12379;49.820;8.648;2022-09-21T19:05:23;12.10;99.90
24250;DHT22;12379;49.820;8.648;2022-09-21T19:08:09;12.00;99.90
24250;DHT22;12379;49.820;8.648;2022-09-21T19:10:46;12.00;99.90
24250;DHT22;12379;49.820;8.648;2022-09-21T19:13:41;12.00;99.90
24250;DHT22;12379;49.820;8.648;2022-09-21T19:16:19;11.90;99.90
24250;DHT22;12379;49.820;8.648;2022-09-21T19:24:36;11.80;99.90
24250;DHT22;12379;49.820;8.648;2022-09-21T19:30:05;11.60;99.90
24250;DHT22;12379;49.820;8.648;2022-09-21T19:32:47;11.60;99.90
24250;DHT22;12379;49.820;8.648;2022-09-21T19:37:42;11.40;99.90
24250;DHT22;12379;49.820;8.648;2022-09-21T19:40:08;11.30;99.90
24250;DHT22;12379;49.820;8.648;2022-09-21T19:48:14;11.20;99.90
24250;DHT22;12379;49.820;8.648;2022-09-21T19:50:51;11.10;99.90